sensor_id;sensor_type;location;lat;lon;timestamp;P1;durP1;ratioP1;P2;durP2;ratioP2
61590;SDS011;71994;52.410;-1.966;2024-03-02T00:01:15;1.63;;;0.70;;
61590;SDS011;71994;52.410;-1.966;2024-03-02T00:04:40;2.35;;;0.90;;
61590;SDS011;71994;52.410;-1.966;2024-03-02T00:08:00;0.77;;;0.50;;
61590;SDS011;71994;52.410;-1.966;2024-03-02T00:11:10;2.08;;;0.77;;
61590;SDS011;71994;52.410;-1.966;2024-03-02T00:14:27;1.20;;;0.77;;
61590;SDS011;71994;52.410;-1.966;2024-03-02T00:17:58;2.38;;;0.90;;
61590;SDS011;71994;52.410;-1.966;2024-03-02T00:21:08;1.60;;;0.93;;
61590;SDS011;71994;52.410;-1.966;2024-03-02T00:24:26;1.80;;;0.80;;
61590;SDS011;71994;52.410;-1.966;2024-03-02T00:27:41;1.75;;;0.85;;
61590;SDS011;71994;52.410;-1.966;2024-03-02T00:30:52;1.73;;;0.80;;
61590;SDS011;71994;52.410;-1.966;2024-03-02T00:34:08;1.60;;;0.70;;
61590;SDS011;71994;52.410;-1.966;2024-03-02T00:40:27;1.52;;;0.80;;
61590;SDS011;71994;52.410;-1.966;2024-03-02T00:43:47;1.60;;;0.80;;
61590;SDS011;71994;52.410;-1.966;2024-03-02T00:47:02;1.52;;;0.88;;
61590;SDS011;71994;52.410;-1.966;2024-03-02T00:50:13;1.58;;;0.80;;
61590;SDS011;71994;52.410;-1.966;2024-03-02T00:53:22;1.85;;;0.90;;
61590;SDS011;71994;52.410;-1.966;2024-03-02T00:56:33;1.25;;;0.70;;
61590;SDS011;71994;52.410;-1.966;2024-03-02T00:59:43;1.52;;;0.73;;
61590;SDS011;71994;52.410;-1.966;2024-03-02T01:02:52;0.85;;;0.50;;
61590;SDS011;71994;52.410;-1.966;2024-03-02T01:06:04;1.10;;;0.70;;
61590;SDS011;71994;52.410;-1.966;2024-03-02T01:09:10;2.80;;;0.80;;
61590;SDS011;71994;52.410;-1.966;2024-03-02T01:12:19;1.27;;;0.70;;
61590;SDS011;71994;52.410;-1.966;2024-03-02T01:15:29;1.30;;;0.80;;
61590;SDS011;71994;52.410;-1.966;2024-03-02T01:18:37;1.38;;;0.70;;
61590;SDS011;71994;52.410;-1.966;2024-03-02T01:21:48;1.70;;;0.90;;
61590;SDS011;71994;52.410;-1.966;2024-03-02T01:24:55;1.58;;;0.70;;
61590;SDS011;71994;52.410;-1.966;2024-03-02T01:28:04;2.00;;;0.80;;
61590;SDS011;71994;52.410;-1.966;2024-03-02T01:31:11;1.13;;;0.68;;
61590;SDS011;71994;52.410;-1.966;2024-03-02T01:34:17;0.93;;;0.60;;
61590;SDS011;71994;52.410;-1.966;2024-03-02T01:37:29;1.52;;;0.80;;
61590;SDS011;71994;52.410;-1.966;2024-03-02T01:40:37;1.35;;;0.82;;
61590;SDS011;71994;52.410;-1.966;2024-03-02T01:43:46;1.58;;;0.60;;
61590;SDS011;71994;52.410;-1.966;2024-03-02T01:46:53;1.23;;;0.63;;
61590;SDS011;71994;52.410;-1.966;2024-03-02T01:50:01;1.40;;;0.80;;
61590;SDS011;71994;52.410;-1.966;2024-03-02T01:53:14;2.05;;;0.80;;
61590;SDS011;71994;52.410;-1.966;2024-03-02T01:56:22;1.25;;;0.70;;
61590;SDS011;71994;52.410;-1.966;2024-03-02T01:59:29;1.90;;;0.90;;
61590;SDS011;71994;52.410;-1.966;2024-03-02T02:02:35;1.50;;;0.98;;
61590;SDS011;71994;52.410;-1.966;2024-03-02T02:05:44;1.70;;;0.70;;
61590;SDS011;71994;52.410;-1.966;2024-03-02T02:08:57;1.30;;;0.70;;
61590;SDS011;71994;52.410;-1.966;2024-03-02T02:12:06;2.03;;;0.63;;
61590;SDS011;71994;52.410;-1.966;2024-03-02T02:15:25;1.20;;;0.70;;
61590;SDS011;71994;52.410;-1.966;2024-03-02T02:18:38;1.45;;;0.70;;
61590;SDS011;71994;52.410;-1.966;2024-03-02T02:21:48;1.57;;;0.70;;
61590;SDS011;71994;52.410;-1.966;2024-03-02T02:24:54;1.27;;;0.65;;
61590;SDS011;71994;52.410;-1.966;2024-03-02T02:28:02;1.58;;;0.73;;
61590;SDS011;71994;52.410;-1.966;2024-03-02T02:31:09;3.08;;;0.75;;
61590;SDS011;71994;52.410;-1.966;2024-03-02T02:34:15;1.52;;;0.77;;
61590;SDS011;71994;52.410;-1.966;2024-03-02T02:37:25;1.27;;;0.70;;
61590;SDS011;71994;52.410;-1.966;2024-03-02T02:40:37;1.08;;;0.65;;
61590;SDS011;71994;52.410;-1.966;2024-03-02T02:43:43;2.25;;;0.90;;
61590;SDS011;71994;52.410;-1.966;2024-03-02T02:46:55;1.10;;;0.70;;
61590;SDS011;71994;52.410;-1.966;2024-03-02T02:50:06;1.27;;;0.60;;
61590;SDS011;71994;52.410;-1.966;2024-03-02T02:53:18;1.30;;;0.68;;
61590;SDS011;71994;52.410;-1.966;2024-03-02T02:56:26;0.65;;;0.45;;
61590;SDS011;71994;52.410;-1.966;2024-03-02T02:59:35;1.13;;;0.70;;
61590;SDS011;71994;52.410;-1.966;2024-03-02T03:02:42;0.93;;;0.52;;
61590;SDS011;71994;52.410;-1.966;2024-03-02T03:05:49;1.27;;;0.60;;
61590;SDS011;71994;52.410;-1.966;2024-03-02T03:09:05;0.95;;;0.60;;
61590;SDS011;71994;52.410;-1.966;2024-03-02T03:12:13;1.23;;;0.70;;
61590;SDS011;71994;52.410;-1.966;2024-03-02T03:15:23;1.88;;;0.75;;
61590;SDS011;71994;52.410;-1.966;2024-03-02T03:18:40;1.13;;;0.57;;
61590;SDS011;71994;52.410;-1.966;2024-03-02T03:21:49;1.63;;;0.70;;
61590;SDS011;71994;52.410;-1.966;2024-03-02T03:25:01;2.40;;;0.70;;
61590;SDS011;71994;52.410;-1.966;2024-03-02T03:28:13;0.98;;;0.57;;
61590;SDS011;71994;52.410;-1.966;2024-03-02T03:31:25;1.33;;;0.90;;
61590;SDS011;71994;52.410;-1.966;2024-03-02T03:34:32;1.08;;;0.50;;
61590;SDS011;71994;52.410;-1.966;2024-03-02T03:37:44;1.95;;;0.65;;
61590;SDS011;71994;52.410;-1.966;2024-03-02T03:40:56;1.38;;;0.70;;
61590;SDS011;71994;52.410;-1.966;2024-03-02T03:44:03;1.23;;;0.67;;
61590;SDS011;71994;52.410;-1.966;2024-03-02T03:47:12;1.23;;;0.60;;
61590;SDS011;71994;52.410;-1.966;2024-03-02T03:50:25;1.00;;;0.70;;
61590;SDS011;71994;52.410;-1.966;2024-03-02T03:53:34;1.38;;;0.73;;
61590;SDS011;71994;52.410;-1.966;2024-03-02T03:56:48;1.70;;;0.70;;
61590;SDS011;71994;52.410;-1.966;2024-03-02T03:59:57;1.20;;;0.60;;
61590;SDS011;71994;52.410;-1.966;2024-03-02T04:03:08;1.40;;;0.70;;
61590;SDS011;71994;52.410;-1.966;2024-03-02T04:06:14;1.92;;;0.77;;
61590;SDS011;71994;52.410;-1.966;2024-03-02T04:09:21;0.95;;;0.60;;
61590;SDS011;71994;52.410;-1.966;2024-03-02T04:12:34;2.05;;;0.90;;
61590;SDS011;71994;52.410;-1.966;2024-03-02T04:18:47;1.30;;;0.70;;
61590;SDS011;71994;52.410;-1.966;2024-03-02T04:21:56;1.53;;;0.90;;
61590;SDS011;71994;52.410;-1.966;2024-03-02T04:25:04;2.42;;;0.90;;
61590;SDS011;71994;52.410;-1.966;2024-03-02T04:28:17;0.88;;;0.80;;
61590;SDS011;71994;52.410;-1.966;2024-03-02T04:31:23;1.17;;;0.70;;
61590;SDS011;71994;52.410;-1.966;2024-03-02T04:34:29;1.90;;;1.00;;
61590;SDS011;71994;52.410;-1.966;2024-03-02T04:37:41;2.13;;;0.93;;
61590;SDS011;71994;52.410;-1.966;2024-03-02T04:40:50;1.83;;;0.85;;
61590;SDS011;71994;52.410;-1.966;2024-03-02T04:43:59;1.85;;;0.90;;
61590;SDS011;71994;52.410;-1.966;2024-03-02T04:47:06;1.42;;;0.88;;
61590;SDS011;71994;52.410;-1.966;2024-03-02T04:50:14;2.42;;;1.13;;
61590;SDS011;71994;52.410;-1.966;2024-03-02T04:53:21;1.83;;;0.95;;
61590;SDS011;71994;52.410;-1.966;2024-03-02T04:56:28;1.63;;;0.80;;
61590;SDS011;71994;52.410;-1.966;2024-03-02T04:59:56;1.42;;;0.90;;
61590;SDS011;71994;52.410;-1.966;2024-03-02T05:03:10;1.52;;;0.80;;
61590;SDS011;71994;52.410;-1.966;2024-03-02T05:06:20;1.33;;;0.80;;
61590;SDS011;71994;52.410;-1.966;2024-03-02T05:09:26;1.20;;;0.80;;
61590;SDS011;71994;52.410;-1.966;2024-03-02T05:12:34;1.80;;;0.80;;
61590;SDS011;71994;52.410;-1.966;2024-03-02T05:16:02;1.20;;;0.80;;
61590;SDS011;71994;52.410;-1.966;2024-03-02T05:19:09;2.08;;;1.00;;
61590;SDS011;71994;52.410;-1.966;2024-03-02T05:22:18;1.52;;;0.70;;
61590;SDS011;71994;52.410;-1.966;2024-03-02T05:25:24;1.33;;;0.80;;
61590;SDS011;71994;52.410;-1.966;2024-03-02T05:31:50;1.60;;;0.80;;
61590;SDS011;71994;52.410;-1.966;2024-03-02T05:34:57;1.40;;;0.85;;
61590;SDS011;71994;52.410;-1.966;2024-03-02T05:38:07;1.60;;;0.80;;
61590;SDS011;71994;52.410;-1.966;2024-03-02T05:41:14;1.08;;;0.70;;
61590;SDS011;71994;52.410;-1.966;2024-03-02T05:44:20;1.85;;;0.98;;
61590;SDS011;71994;52.410;-1.966;2024-03-02T05:47:29;1.40;;;0.73;;
61590;SDS011;71994;52.410;-1.966;2024-03-02T05:50:36;2.13;;;1.00;;
61590;SDS011;71994;52.410;-1.966;2024-03-02T05:53:44;1.38;;;1.00;;
61590;SDS011;71994;52.410;-1.966;2024-03-02T05:56:51;1.30;;;0.88;;
61590;SDS011;71994;52.410;-1.966;2024-03-02T06:00:19;1.70;;;0.93;;
61590;SDS011;71994;52.410;-1.966;2024-03-02T06:03:33;1.00;;;0.68;;
61590;SDS011;71994;52.410;-1.966;2024-03-02T06:06:46;1.50;;;0.80;;
61590;SDS011;71994;52.410;-1.966;2024-03-02T06:09:52;1.00;;;0.70;;
61590;SDS011;71994;52.410;-1.966;2024-03-02T06:12:59;1.30;;;0.80;;
61590;SDS011;71994;52.410;-1.966;2024-03-02T06:16:10;2.05;;;0.80;;
61590;SDS011;71994;52.410;-1.966;2024-03-02T06:19:23;1.95;;;0.70;;
61590;SDS011;71994;52.410;-1.966;2024-03-02T06:22:33;1.88;;;0.70;;
61590;SDS011;71994;52.410;-1.966;2024-03-02T06:25:41;0.68;;;0.60;;
61590;SDS011;71994;52.410;-1.966;2024-03-02T06:28:52;1.10;;;0.70;;
61590;SDS011;71994;52.410;-1.966;2024-03-02T06:31:58;1.48;;;0.95;;
61590;SDS011;71994;52.410;-1.966;2024-03-02T06:35:08;1.50;;;0.90;;
61590;SDS011;71994;52.410;-1.966;2024-03-02T06:38:15;1.00;;;0.60;;
61590;SDS011;71994;52.410;-1.966;2024-03-02T06:41:26;1.13;;;0.70;;
61590;SDS011;71994;52.410;-1.966;2024-03-02T06:44:35;1.15;;;0.73;;
61590;SDS011;71994;52.410;-1.966;2024-03-02T06:47:49;0.93;;;0.70;;
61590;SDS011;71994;52.410;-1.966;2024-03-02T06:50:56;1.38;;;0.80;;
61590;SDS011;71994;52.410;-1.966;2024-03-02T06:54:05;1.60;;;0.70;;
61590;SDS011;71994;52.410;-1.966;2024-03-02T06:57:11;1.13;;;0.73;;
61590;SDS011;71994;52.410;-1.966;2024-03-02T07:00:20;0.90;;;0.70;;
61590;SDS011;71994;52.410;-1.966;2024-03-02T07:03:27;1.98;;;0.80;;
61590;SDS011;71994;52.410;-1.966;2024-03-02T07:06:41;1.50;;;0.80;;
61590;SDS011;71994;52.410;-1.966;2024-03-02T07:09:49;1.27;;;0.90;;
61590;SDS011;71994;52.410;-1.966;2024-03-02T07:13:03;1.42;;;0.77;;
61590;SDS011;71994;52.410;-1.966;2024-03-02T07:16:23;1.58;;;0.80;;
61590;SDS011;71994;52.410;-1.966;2024-03-02T07:19:34;1.17;;;0.70;;
61590;SDS011;71994;52.410;-1.966;2024-03-02T07:22:44;1.00;;;0.70;;
61590;SDS011;71994;52.410;-1.966;2024-03-02T07:25:50;2.15;;;0.90;;
61590;SDS011;71994;52.410;-1.966;2024-03-02T07:28:55;1.17;;;0.70;;
61590;SDS011;71994;52.410;-1.966;2024-03-02T07:31:59;1.40;;;0.70;;
61590;SDS011;71994;52.410;-1.966;2024-03-02T07:35:05;0.90;;;0.65;;
61590;SDS011;71994;52.410;-1.966;2024-03-02T07:38:18;1.17;;;0.68;;
61590;SDS011;71994;52.410;-1.966;2024-03-02T07:41:26;1.23;;;0.70;;
61590;SDS011;71994;52.410;-1.966;2024-03-02T07:44:36;0.77;;;0.60;;
61590;SDS011;71994;52.410;-1.966;2024-03-02T07:50:57;1.00;;;0.60;;
61590;SDS011;71994;52.410;-1.966;2024-03-02T07:54:06;1.50;;;0.63;;
61590;SDS011;71994;52.410;-1.966;2024-03-02T07:57:12;1.00;;;0.70;;
61590;SDS011;71994;52.410;-1.966;2024-03-02T08:00:19;1.23;;;0.70;;
61590;SDS011;71994;52.410;-1.966;2024-03-02T08:03:26;0.80;;;0.60;;
61590;SDS011;71994;52.410;-1.966;2024-03-02T08:06:37;1.10;;;0.70;;
61590;SDS011;71994;52.410;-1.966;2024-03-02T08:09:52;0.95;;;0.63;;
61590;SDS011;71994;52.410;-1.966;2024-03-02T08:13:02;1.05;;;0.80;;
61590;SDS011;71994;52.410;-1.966;2024-03-02T08:16:18;0.77;;;0.70;;
61590;SDS011;71994;52.410;-1.966;2024-03-02T08:19:44;1.73;;;0.80;;
61590;SDS011;71994;52.410;-1.966;2024-03-02T08:22:53;1.40;;;0.82;;
61590;SDS011;71994;52.410;-1.966;2024-03-02T08:26:05;1.10;;;0.80;;
61590;SDS011;71994;52.410;-1.966;2024-03-02T08:29:18;1.05;;;0.80;;
61590;SDS011;71994;52.410;-1.966;2024-03-02T08:32:24;1.10;;;0.80;;
61590;SDS011;71994;52.410;-1.966;2024-03-02T08:35:32;1.23;;;0.90;;
61590;SDS011;71994;52.410;-1.966;2024-03-02T08:38:37;1.30;;;0.90;;
61590;SDS011;71994;52.410;-1.966;2024-03-02T08:41:47;1.75;;;1.00;;
61590;SDS011;71994;52.410;-1.966;2024-03-02T08:44:54;1.30;;;1.00;;
61590;SDS011;71994;52.410;-1.966;2024-03-02T08:48:06;1.75;;;1.00;;
61590;SDS011;71994;52.410;-1.966;2024-03-02T08:51:19;1.88;;;1.00;;
61590;SDS011;71994;52.410;-1.966;2024-03-02T08:54:27;1.35;;;0.90;;
61590;SDS011;71994;52.410;-1.966;2024-03-02T08:57:34;1.27;;;0.80;;
61590;SDS011;71994;52.410;-1.966;2024-03-02T09:00:42;1.35;;;0.80;;
61590;SDS011;71994;52.410;-1.966;2024-03-02T09:03:49;3.10;;;1.05;;
61590;SDS011;71994;52.410;-1.966;2024-03-02T09:06:54;3.80;;;1.00;;
61590;SDS011;71994;52.410;-1.966;2024-03-02T09:09:59;1.60;;;0.88;;
61590;SDS011;71994;52.410;-1.966;2024-03-02T09:13:14;3.85;;;1.10;;
61590;SDS011;71994;52.410;-1.966;2024-03-02T09:16:18;1.88;;;0.98;;
61590;SDS011;71994;52.410;-1.966;2024-03-02T09:19:24;3.47;;;1.25;;
61590;SDS011;71994;52.410;-1.966;2024-03-02T09:22:31;6.80;;;0.90;;
61590;SDS011;71994;52.410;-1.966;2024-03-02T09:25:35;2.30;;;0.90;;
61590;SDS011;71994;52.410;-1.966;2024-03-02T09:28:47;3.45;;;1.10;;
61590;SDS011;71994;52.410;-1.966;2024-03-02T09:31:54;3.13;;;0.90;;
61590;SDS011;71994;52.410;-1.966;2024-03-02T09:35:05;0.98;;;0.60;;
61590;SDS011;71994;52.410;-1.966;2024-03-02T09:38:12;14.23;;;1.05;;
61590;SDS011;71994;52.410;-1.966;2024-03-02T09:41:26;47.38;;;3.58;;
61590;SDS011;71994;52.410;-1.966;2024-03-02T09:44:38;47.05;;;2.33;;
61590;SDS011;71994;52.410;-1.966;2024-03-02T09:47:44;56.83;;;3.13;;
61590;SDS011;71994;52.410;-1.966;2024-03-02T09:50:56;36.03;;;2.63;;
61590;SDS011;71994;52.410;-1.966;2024-03-02T09:54:04;36.83;;;2.70;;
61590;SDS011;71994;52.410;-1.966;2024-03-02T09:57:17;33.08;;;2.65;;
61590;SDS011;71994;52.410;-1.966;2024-03-02T10:00:29;20.25;;;1.73;;
61590;SDS011;71994;52.410;-1.966;2024-03-02T10:03:56;25.15;;;2.17;;
61590;SDS011;71994;52.410;-1.966;2024-03-02T10:07:12;21.88;;;2.00;;
61590;SDS011;71994;52.410;-1.966;2024-03-02T10:10:16;14.88;;;1.75;;
61590;SDS011;71994;52.410;-1.966;2024-03-02T10:13:24;19.75;;;2.00;;
61590;SDS011;71994;52.410;-1.966;2024-03-02T10:16:45;6.25;;;1.23;;
61590;SDS011;71994;52.410;-1.966;2024-03-02T10:19:52;10.70;;;1.40;;
61590;SDS011;71994;52.410;-1.966;2024-03-02T10:23:09;12.63;;;1.23;;
61590;SDS011;71994;52.410;-1.966;2024-03-02T10:26:16;5.60;;;1.33;;
61590;SDS011;71994;52.410;-1.966;2024-03-02T10:29:24;5.90;;;0.90;;
61590;SDS011;71994;52.410;-1.966;2024-03-02T10:32:38;6.55;;;0.95;;
61590;SDS011;71994;52.410;-1.966;2024-03-02T10:35:42;5.15;;;0.90;;
61590;SDS011;71994;52.410;-1.966;2024-03-02T10:38:50;3.22;;;0.73;;
61590;SDS011;71994;52.410;-1.966;2024-03-02T10:42:05;4.57;;;1.48;;
61590;SDS011;71994;52.410;-1.966;2024-03-02T10:45:12;7.15;;;0.70;;
61590;SDS011;71994;52.410;-1.966;2024-03-02T10:48:24;7.05;;;0.90;;
61590;SDS011;71994;52.410;-1.966;2024-03-02T10:51:36;3.08;;;0.80;;
61590;SDS011;71994;52.410;-1.966;2024-03-02T10:54:42;4.05;;;0.65;;
61590;SDS011;71994;52.410;-1.966;2024-03-02T10:57:50;3.40;;;0.50;;
61590;SDS011;71994;52.410;-1.966;2024-03-02T11:00:56;3.60;;;0.57;;
61590;SDS011;71994;52.410;-1.966;2024-03-02T11:04:23;4.03;;;0.65;;
61590;SDS011;71994;52.410;-1.966;2024-03-02T11:07:46;2.53;;;0.55;;
61590;SDS011;71994;52.410;-1.966;2024-03-02T11:10:54;2.95;;;0.57;;
61590;SDS011;71994;52.410;-1.966;2024-03-02T11:14:10;5.07;;;0.50;;
61590;SDS011;71994;52.410;-1.966;2024-03-02T11:17:16;1.15;;;0.50;;
61590;SDS011;71994;52.410;-1.966;2024-03-02T11:23:57;1.17;;;0.40;;
61590;SDS011;71994;52.410;-1.966;2024-03-02T11:27:02;1.83;;;0.50;;
61590;SDS011;71994;52.410;-1.966;2024-03-02T11:30:15;4.63;;;0.50;;
61590;SDS011;71994;52.410;-1.966;2024-03-02T11:33:55;3.00;;;0.60;;
61590;SDS011;71994;52.410;-1.966;2024-03-02T11:37:22;1.15;;;0.50;;
61590;SDS011;71994;52.410;-1.966;2024-03-02T11:40:29;2.42;;;0.38;;
61590;SDS011;71994;52.410;-1.966;2024-03-02T11:43:36;1.23;;;0.30;;
61590;SDS011;71994;52.410;-1.966;2024-03-02T11:46:51;3.35;;;0.50;;
61590;SDS011;71994;52.410;-1.966;2024-03-02T11:50:01;0.50;;;0.30;;
61590;SDS011;71994;52.410;-1.966;2024-03-02T11:53:10;1.10;;;0.32;;
61590;SDS011;71994;52.410;-1.966;2024-03-02T11:56:17;0.73;;;0.40;;
61590;SDS011;71994;52.410;-1.966;2024-03-02T11:59:23;0.52;;;0.32;;
61590;SDS011;71994;52.410;-1.966;2024-03-02T12:02:33;0.82;;;0.30;;
61590;SDS011;71994;52.410;-1.966;2024-03-02T12:05:45;0.82;;;0.20;;
61590;SDS011;71994;52.410;-1.966;2024-03-02T12:08:56;1.23;;;0.47;;
61590;SDS011;71994;52.410;-1.966;2024-03-02T12:12:06;1.88;;;0.47;;
61590;SDS011;71994;52.410;-1.966;2024-03-02T12:15:11;1.10;;;0.30;;
61590;SDS011;71994;52.410;-1.966;2024-03-02T12:18:19;1.85;;;0.50;;
61590;SDS011;71994;52.410;-1.966;2024-03-02T12:21:29;2.85;;;0.30;;
61590;SDS011;71994;52.410;-1.966;2024-03-02T12:24:38;0.40;;;0.20;;
61590;SDS011;71994;52.410;-1.966;2024-03-02T12:27:45;0.55;;;0.35;;
61590;SDS011;71994;52.410;-1.966;2024-03-02T12:30:50;0.68;;;0.35;;
61590;SDS011;71994;52.410;-1.966;2024-03-02T12:33:58;0.60;;;0.30;;
61590;SDS011;71994;52.410;-1.966;2024-03-02T12:37:05;1.13;;;0.30;;
61590;SDS011;71994;52.410;-1.966;2024-03-02T12:40:14;0.55;;;0.20;;
61590;SDS011;71994;52.410;-1.966;2024-03-02T12:43:23;0.82;;;0.28;;
61590;SDS011;71994;52.410;-1.966;2024-03-02T12:46:27;0.20;;;0.20;;
61590;SDS011;71994;52.410;-1.966;2024-03-02T12:49:31;0.45;;;0.20;;
61590;SDS011;71994;52.410;-1.966;2024-03-02T12:52:35;0.30;;;0.20;;
61590;SDS011;71994;52.410;-1.966;2024-03-02T12:55:48;0.45;;;0.22;;
61590;SDS011;71994;52.410;-1.966;2024-03-02T12:58:53;0.93;;;0.20;;
61590;SDS011;71994;52.410;-1.966;2024-03-02T13:02:00;0.63;;;0.38;;
61590;SDS011;71994;52.410;-1.966;2024-03-02T13:05:13;0.70;;;0.30;;
61590;SDS011;71994;52.410;-1.966;2024-03-02T13:08:25;1.30;;;0.20;;
61590;SDS011;71994;52.410;-1.966;2024-03-02T13:11:34;0.80;;;0.30;;
61590;SDS011;71994;52.410;-1.966;2024-03-02T13:14:40;3.05;;;0.40;;
61590;SDS011;71994;52.410;-1.966;2024-03-02T13:17:47;3.80;;;0.57;;
61590;SDS011;71994;52.410;-1.966;2024-03-02T13:20:52;2.28;;;0.52;;
61590;SDS011;71994;52.410;-1.966;2024-03-02T13:23:58;2.08;;;0.43;;
61590;SDS011;71994;52.410;-1.966;2024-03-02T13:27:06;3.95;;;0.40;;
61590;SDS011;71994;52.410;-1.966;2024-03-02T13:30:13;2.17;;;0.40;;
61590;SDS011;71994;52.410;-1.966;2024-03-02T13:33:18;0.73;;;0.30;;
61590;SDS011;71994;52.410;-1.966;2024-03-02T13:36:31;1.50;;;0.30;;
61590;SDS011;71994;52.410;-1.966;2024-03-02T13:39:38;0.73;;;0.30;;
61590;SDS011;71994;52.410;-1.966;2024-03-02T13:42:55;0.60;;;0.30;;
61590;SDS011;71994;52.410;-1.966;2024-03-02T13:46:05;0.70;;;0.30;;
61590;SDS011;71994;52.410;-1.966;2024-03-02T13:49:11;2.42;;;0.40;;
61590;SDS011;71994;52.410;-1.966;2024-03-02T13:52:15;2.15;;;0.40;;
61590;SDS011;71994;52.410;-1.966;2024-03-02T13:55:22;1.30;;;0.30;;
61590;SDS011;71994;52.410;-1.966;2024-03-02T13:58:28;2.85;;;0.40;;
61590;SDS011;71994;52.410;-1.966;2024-03-02T14:01:41;1.60;;;0.40;;
61590;SDS011;71994;52.410;-1.966;2024-03-02T14:04:48;0.68;;;0.38;;
61590;SDS011;71994;52.410;-1.966;2024-03-02T14:07:53;0.73;;;0.40;;
61590;SDS011;71994;52.410;-1.966;2024-03-02T14:10:58;0.70;;;0.40;;
61590;SDS011;71994;52.410;-1.966;2024-03-02T14:14:05;1.08;;;0.30;;
61590;SDS011;71994;52.410;-1.966;2024-03-02T14:17:12;0.52;;;0.40;;
61590;SDS011;71994;52.410;-1.966;2024-03-02T14:20:18;0.52;;;0.35;;
61590;SDS011;71994;52.410;-1.966;2024-03-02T14:23:24;1.15;;;0.47;;
61590;SDS011;71994;52.410;-1.966;2024-03-02T14:26:32;1.75;;;0.50;;
61590;SDS011;71994;52.410;-1.966;2024-03-02T14:29:44;0.82;;;0.47;;
61590;SDS011;71994;52.410;-1.966;2024-03-02T14:32:48;1.05;;;0.52;;
61590;SDS011;71994;52.410;-1.966;2024-03-02T14:35:52;0.80;;;0.50;;
61590;SDS011;71994;52.410;-1.966;2024-03-02T14:38:56;1.48;;;0.65;;
61590;SDS011;71994;52.410;-1.966;2024-03-02T14:42:00;1.20;;;0.60;;
61590;SDS011;71994;52.410;-1.966;2024-03-02T14:45:07;1.10;;;0.70;;
61590;SDS011;71994;52.410;-1.966;2024-03-02T14:48:12;1.02;;;0.57;;
61590;SDS011;71994;52.410;-1.966;2024-03-02T14:51:16;1.15;;;0.70;;
61590;SDS011;71994;52.410;-1.966;2024-03-02T14:54:23;1.13;;;0.73;;
61590;SDS011;71994;52.410;-1.966;2024-03-02T14:57:27;1.42;;;0.80;;
61590;SDS011;71994;52.410;-1.966;2024-03-02T15:00:36;1.30;;;0.70;;
61590;SDS011;71994;52.410;-1.966;2024-03-02T15:03:40;1.55;;;0.65;;
61590;SDS011;71994;52.410;-1.966;2024-03-02T15:06:44;0.88;;;0.60;;
61590;SDS011;71994;52.410;-1.966;2024-03-02T15:09:51;1.10;;;0.73;;
61590;SDS011;71994;52.410;-1.966;2024-03-02T15:12:58;2.28;;;0.60;;
61590;SDS011;71994;52.410;-1.966;2024-03-02T15:16:06;1.30;;;0.50;;
61590;SDS011;71994;52.410;-1.966;2024-03-02T15:19:11;0.90;;;0.60;;
61590;SDS011;71994;52.410;-1.966;2024-03-02T15:22:20;3.22;;;0.60;;
61590;SDS011;71994;52.410;-1.966;2024-03-02T15:25:25;1.30;;;0.65;;
61590;SDS011;71994;52.410;-1.966;2024-03-02T15:28:31;1.30;;;0.50;;
61590;SDS011;71994;52.410;-1.966;2024-03-02T15:32:10;1.10;;;0.60;;
61590;SDS011;71994;52.410;-1.966;2024-03-02T15:35:35;1.30;;;0.70;;
61590;SDS011;71994;52.410;-1.966;2024-03-02T15:38:57;1.60;;;0.60;;
61590;SDS011;71994;52.410;-1.966;2024-03-02T15:42:23;1.88;;;0.70;;
61590;SDS011;71994;52.410;-1.966;2024-03-02T15:45:52;1.00;;;0.60;;
61590;SDS011;71994;52.410;-1.966;2024-03-02T15:49:18;1.38;;;0.52;;
61590;SDS011;71994;52.410;-1.966;2024-03-02T15:52:42;0.88;;;0.43;;
61590;SDS011;71994;52.410;-1.966;2024-03-02T15:56:07;1.15;;;0.60;;
61590;SDS011;71994;52.410;-1.966;2024-03-02T15:59:32;0.60;;;0.50;;
61590;SDS011;71994;52.410;-1.966;2024-03-02T16:02:57;0.65;;;0.50;;
61590;SDS011;71994;52.410;-1.966;2024-03-02T16:06:25;0.88;;;0.50;;
61590;SDS011;71994;52.410;-1.966;2024-03-02T16:09:48;1.05;;;0.60;;
61590;SDS011;71994;52.410;-1.966;2024-03-02T16:13:12;0.98;;;0.60;;
61590;SDS011;71994;52.410;-1.966;2024-03-02T16:16:38;0.80;;;0.50;;
61590;SDS011;71994;52.410;-1.966;2024-03-02T16:20:03;0.60;;;0.40;;
61590;SDS011;71994;52.410;-1.966;2024-03-02T16:23:18;1.70;;;0.60;;
61590;SDS011;71994;52.410;-1.966;2024-03-02T16:26:25;0.80;;;0.50;;
61590;SDS011;71994;52.410;-1.966;2024-03-02T16:29:31;1.42;;;0.50;;
61590;SDS011;71994;52.410;-1.966;2024-03-02T16:32:45;2.13;;;0.70;;
61590;SDS011;71994;52.410;-1.966;2024-03-02T16:35:57;1.10;;;0.65;;
61590;SDS011;71994;52.410;-1.966;2024-03-02T16:39:11;0.70;;;0.50;;
61590;SDS011;71994;52.410;-1.966;2024-03-02T16:42:24;0.90;;;0.70;;
61590;SDS011;71994;52.410;-1.966;2024-03-02T16:45:35;2.40;;;0.50;;
61590;SDS011;71994;52.410;-1.966;2024-03-02T16:48:47;0.90;;;0.57;;
61590;SDS011;71994;52.410;-1.966;2024-03-02T16:51:57;1.05;;;0.50;;
61590;SDS011;71994;52.410;-1.966;2024-03-02T16:55:07;1.00;;;0.50;;
61590;SDS011;71994;52.410;-1.966;2024-03-02T16:58:17;2.83;;;0.60;;
61590;SDS011;71994;52.410;-1.966;2024-03-02T17:01:25;1.63;;;0.60;;
61590;SDS011;71994;52.410;-1.966;2024-03-02T17:04:31;2.00;;;0.50;;
61590;SDS011;71994;52.410;-1.966;2024-03-02T17:07:45;1.10;;;0.57;;
61590;SDS011;71994;52.410;-1.966;2024-03-02T17:10:55;0.98;;;0.50;;
61590;SDS011;71994;52.410;-1.966;2024-03-02T17:14:08;1.05;;;0.45;;
61590;SDS011;71994;52.410;-1.966;2024-03-02T17:17:23;1.00;;;0.57;;
61590;SDS011;71994;52.410;-1.966;2024-03-02T17:20:30;0.90;;;0.60;;
61590;SDS011;71994;52.410;-1.966;2024-03-02T17:23:43;1.50;;;0.60;;
61590;SDS011;71994;52.410;-1.966;2024-03-02T17:26:54;1.00;;;0.40;;
61590;SDS011;71994;52.410;-1.966;2024-03-02T17:30:01;1.48;;;0.50;;
61590;SDS011;71994;52.410;-1.966;2024-03-02T17:33:10;0.67;;;0.50;;
61590;SDS011;71994;52.410;-1.966;2024-03-02T17:36:23;1.08;;;0.60;;
61590;SDS011;71994;52.410;-1.966;2024-03-02T17:39:41;2.58;;;0.68;;
61590;SDS011;71994;52.410;-1.966;2024-03-02T17:42:52;3.55;;;0.60;;
61590;SDS011;71994;52.410;-1.966;2024-03-02T17:46:04;1.73;;;0.50;;
61590;SDS011;71994;52.410;-1.966;2024-03-02T17:49:14;0.63;;;0.50;;
61590;SDS011;71994;52.410;-1.966;2024-03-02T17:52:24;0.68;;;0.57;;
61590;SDS011;71994;52.410;-1.966;2024-03-02T17:55:35;1.00;;;0.60;;
61590;SDS011;71994;52.410;-1.966;2024-03-02T17:59:26;0.57;;;0.43;;
61590;SDS011;71994;52.410;-1.966;2024-03-02T18:02:44;0.88;;;0.63;;
61590;SDS011;71994;52.410;-1.966;2024-03-02T18:05:56;1.05;;;0.50;;
61590;SDS011;71994;52.410;-1.966;2024-03-02T18:09:22;2.85;;;0.90;;
61590;SDS011;71994;52.410;-1.966;2024-03-02T18:12:38;1.02;;;0.55;;
61590;SDS011;71994;52.410;-1.966;2024-03-02T18:15:51;1.17;;;0.70;;
61590;SDS011;71994;52.410;-1.966;2024-03-02T18:19:08;0.90;;;0.70;;
61590;SDS011;71994;52.410;-1.966;2024-03-02T18:22:18;1.42;;;0.82;;
61590;SDS011;71994;52.410;-1.966;2024-03-02T18:25:46;1.48;;;0.80;;
61590;SDS011;71994;52.410;-1.966;2024-03-02T18:29:12;1.08;;;0.70;;
61590;SDS011;71994;52.410;-1.966;2024-03-02T18:32:40;1.55;;;0.88;;
61590;SDS011;71994;52.410;-1.966;2024-03-02T18:35:50;1.63;;;1.10;;
61590;SDS011;71994;52.410;-1.966;2024-03-02T18:38:58;2.17;;;1.00;;
61590;SDS011;71994;52.410;-1.966;2024-03-02T18:42:04;1.48;;;0.80;;
61590;SDS011;71994;52.410;-1.966;2024-03-02T18:45:13;4.90;;;1.30;;
61590;SDS011;71994;52.410;-1.966;2024-03-02T18:48:23;9.20;;;1.40;;
61590;SDS011;71994;52.410;-1.966;2024-03-02T18:51:33;4.70;;;1.30;;
61590;SDS011;71994;52.410;-1.966;2024-03-02T18:54:42;3.78;;;1.30;;
61590;SDS011;71994;52.410;-1.966;2024-03-02T18:57:48;3.20;;;1.20;;
61590;SDS011;71994;52.410;-1.966;2024-03-02T19:00:58;4.93;;;1.52;;
61590;SDS011;71994;52.410;-1.966;2024-03-02T19:04:13;2.92;;;1.50;;
61590;SDS011;71994;52.410;-1.966;2024-03-02T19:07:22;11.00;;;1.48;;